sensor_id;sensor_type;location;lat;lon;timestamp;P1;durP1;ratioP1;P2;durP2;ratioP2
20073;SDS011;10197;54.282;10.078;2023-09-12T00:01:21;57.72;;;46.28;;
20073;SDS011;10197;54.282;10.078;2023-09-12T00:03:48;53.45;;;41.20;;
20073;SDS011;10197;54.282;10.078;2023-09-12T00:06:16;53.47;;;44.63;;
20073;SDS011;10197;54.282;10.078;2023-09-12T00:08:44;55.10;;;44.45;;
20073;SDS011;10197;54.282;10.078;2023-09-12T00:11:11;53.97;;;44.40;;
20073;SDS011;10197;54.282;10.078;2023-09-12T00:13:38;59.25;;;45.08;;
20073;SDS011;10197;54.282;10.078;2023-09-12T00:16:06;57.72;;;46.65;;
20073;SDS011;10197;54.282;10.078;2023-09-12T00:18:34;64.53;;;48.15;;
20073;SDS011;10197;54.282;10.078;2023-09-12T00:21:01;62.40;;;49.65;;
20073;SDS011;10197;54.282;10.078;2023-09-12T00:23:30;60.90;;;48.30;;
20073;SDS011;10197;54.282;10.078;2023-09-12T00:25:57;57.72;;;44.72;;
20073;SDS011;10197;54.282;10.078;2023-09-12T00:28:24;61.70;;;47.47;;
20073;SDS011;10197;54.282;10.078;2023-09-12T00:30:51;56.45;;;45.22;;
20073;SDS011;10197;54.282;10.078;2023-09-12T00:33:18;55.55;;;43.67;;
20073;SDS011;10197;54.282;10.078;2023-09-12T00:35:45;60.70;;;45.53;;
20073;SDS011;10197;54.282;10.078;2023-09-12T00:38:12;63.10;;;46.40;;
20073;SDS011;10197;54.282;10.078;2023-09-12T00:40:41;58.13;;;44.72;;
20073;SDS011;10197;54.282;10.078;2023-09-12T00:43:08;52.75;;;42.40;;
20073;SDS011;10197;54.282;10.078;2023-09-12T00:45:36;57.78;;;43.75;;
20073;SDS011;10197;54.282;10.078;2023-09-12T00:48:03;49.60;;;40.83;;
20073;SDS011;10197;54.282;10.078;2023-09-12T00:50:30;55.13;;;42.08;;
20073;SDS011;10197;54.282;10.078;2023-09-12T00:53:04;59.42;;;44.53;;
20073;SDS011;10197;54.282;10.078;2023-09-12T00:55:32;51.95;;;40.38;;
20073;SDS011;10197;54.282;10.078;2023-09-12T00:58:02;57.95;;;43.63;;
20073;SDS011;10197;54.282;10.078;2023-09-12T01:00:29;60.20;;;45.42;;
20073;SDS011;10197;54.282;10.078;2023-09-12T01:02:56;54.65;;;41.78;;
20073;SDS011;10197;54.282;10.078;2023-09-12T01:05:24;52.83;;;41.05;;
20073;SDS011;10197;54.282;10.078;2023-09-12T01:07:51;55.20;;;42.15;;
20073;SDS011;10197;54.282;10.078;2023-09-12T01:10:19;52.30;;;39.20;;
20073;SDS011;10197;54.282;10.078;2023-09-12T01:12:46;46.70;;;36.97;;
20073;SDS011;10197;54.282;10.078;2023-09-12T01:15:15;53.42;;;40.22;;
20073;SDS011;10197;54.282;10.078;2023-09-12T01:17:42;56.85;;;40.05;;
20073;SDS011;10197;54.282;10.078;2023-09-12T01:20:11;48.63;;;35.70;;
20073;SDS011;10197;54.282;10.078;2023-09-12T01:28:29;51.58;;;36.17;;
20073;SDS011;10197;54.282;10.078;2023-09-12T01:30:57;54.17;;;36.70;;
20073;SDS011;10197;54.282;10.078;2023-09-12T01:33:25;46.28;;;33.30;;
20073;SDS011;10197;54.282;10.078;2023-09-12T01:35:52;47.47;;;35.03;;
20073;SDS011;10197;54.282;10.078;2023-09-12T01:38:19;43.30;;;33.85;;
20073;SDS011;10197;54.282;10.078;2023-09-12T01:40:47;44.25;;;31.75;;
20073;SDS011;10197;54.282;10.078;2023-09-12T01:43:15;50.60;;;35.55;;
20073;SDS011;10197;54.282;10.078;2023-09-12T01:45:44;36.00;;;25.48;;
20073;SDS011;10197;54.282;10.078;2023-09-12T01:48:12;29.35;;;23.15;;
20073;SDS011;10197;54.282;10.078;2023-09-12T01:50:39;34.58;;;25.58;;
20073;SDS011;10197;54.282;10.078;2023-09-12T01:53:07;39.53;;;29.52;;
20073;SDS011;10197;54.282;10.078;2023-09-12T01:55:34;39.53;;;30.55;;
20073;SDS011;10197;54.282;10.078;2023-09-12T01:58:02;39.55;;;29.67;;
20073;SDS011;10197;54.282;10.078;2023-09-12T02:00:29;37.80;;;27.88;;
20073;SDS011;10197;54.282;10.078;2023-09-12T02:02:57;36.55;;;28.10;;
20073;SDS011;10197;54.282;10.078;2023-09-12T02:05:24;39.95;;;29.67;;
20073;SDS011;10197;54.282;10.078;2023-09-12T02:07:51;39.03;;;27.48;;
20073;SDS011;10197;54.282;10.078;2023-09-12T02:10:18;41.45;;;29.95;;
20073;SDS011;10197;54.282;10.078;2023-09-12T02:12:44;37.80;;;28.42;;
20073;SDS011;10197;54.282;10.078;2023-09-12T02:15:11;41.20;;;28.77;;
20073;SDS011;10197;54.282;10.078;2023-09-12T02:17:39;45.70;;;31.38;;
20073;SDS011;10197;54.282;10.078;2023-09-12T02:20:08;37.25;;;27.23;;
20073;SDS011;10197;54.282;10.078;2023-09-12T02:22:36;35.13;;;26.92;;
20073;SDS011;10197;54.282;10.078;2023-09-12T02:25:04;40.38;;;28.85;;
20073;SDS011;10197;54.282;10.078;2023-09-12T02:27:31;34.03;;;25.27;;
20073;SDS011;10197;54.282;10.078;2023-09-12T02:29:58;38.72;;;29.20;;
20073;SDS011;10197;54.282;10.078;2023-09-12T02:32:25;40.45;;;28.52;;
20073;SDS011;10197;54.282;10.078;2023-09-12T02:34:52;34.80;;;25.05;;
20073;SDS011;10197;54.282;10.078;2023-09-12T02:37:23;29.13;;;23.40;;
20073;SDS011;10197;54.282;10.078;2023-09-12T02:39:50;34.33;;;25.65;;
20073;SDS011;10197;54.282;10.078;2023-09-12T02:42:17;32.72;;;25.05;;
20073;SDS011;10197;54.282;10.078;2023-09-12T02:44:44;31.92;;;23.63;;
20073;SDS011;10197;54.282;10.078;2023-09-12T02:47:10;34.03;;;25.40;;
20073;SDS011;10197;54.282;10.078;2023-09-12T02:49:37;35.65;;;27.45;;
20073;SDS011;10197;54.282;10.078;2023-09-12T02:52:04;36.15;;;27.88;;
20073;SDS011;10197;54.282;10.078;2023-09-12T02:54:33;43.88;;;29.77;;
20073;SDS011;10197;54.282;10.078;2023-09-12T02:56:59;33.90;;;25.75;;
20073;SDS011;10197;54.282;10.078;2023-09-12T02:59:26;36.20;;;26.60;;
20073;SDS011;10197;54.282;10.078;2023-09-12T03:01:53;36.92;;;26.30;;
20073;SDS011;10197;54.282;10.078;2023-09-12T03:04:20;44.75;;;30.38;;
20073;SDS011;10197;54.282;10.078;2023-09-12T03:06:46;38.30;;;27.17;;
20073;SDS011;10197;54.282;10.078;2023-09-12T03:09:13;32.83;;;23.88;;
20073;SDS011;10197;54.282;10.078;2023-09-12T03:11:43;32.75;;;23.50;;
20073;SDS011;10197;54.282;10.078;2023-09-12T03:14:10;26.10;;;21.20;;
20073;SDS011;10197;54.282;10.078;2023-09-12T03:16:37;26.52;;;21.70;;
20073;SDS011;10197;54.282;10.078;2023-09-12T03:19:05;30.40;;;22.05;;
20073;SDS011;10197;54.282;10.078;2023-09-12T03:21:31;28.08;;;22.02;;
20073;SDS011;10197;54.282;10.078;2023-09-12T03:23:58;33.92;;;24.38;;
20073;SDS011;10197;54.282;10.078;2023-09-12T03:26:25;33.03;;;22.83;;
20073;SDS011;10197;54.282;10.078;2023-09-12T03:28:53;41.20;;;27.90;;
20073;SDS011;10197;54.282;10.078;2023-09-12T03:31:21;38.97;;;28.15;;
20073;SDS011;10197;54.282;10.078;2023-09-12T03:33:48;37.60;;;27.00;;
20073;SDS011;10197;54.282;10.078;2023-09-12T03:36:16;38.67;;;28.10;;
20073;SDS011;10197;54.282;10.078;2023-09-12T03:38:43;40.17;;;29.58;;
20073;SDS011;10197;54.282;10.078;2023-09-12T03:41:10;40.47;;;29.35;;
20073;SDS011;10197;54.282;10.078;2023-09-12T03:43:37;34.13;;;26.10;;
20073;SDS011;10197;54.282;10.078;2023-09-12T03:46:05;34.08;;;24.02;;
20073;SDS011;10197;54.282;10.078;2023-09-12T03:48:32;36.67;;;26.45;;
20073;SDS011;10197;54.282;10.078;2023-09-12T03:51:02;33.63;;;24.13;;
20073;SDS011;10197;54.282;10.078;2023-09-12T03:53:29;32.60;;;23.30;;
20073;SDS011;10197;54.282;10.078;2023-09-12T03:55:57;36.42;;;26.73;;
20073;SDS011;10197;54.282;10.078;2023-09-12T03:58:30;42.25;;;29.83;;
20073;SDS011;10197;54.282;10.078;2023-09-12T04:01:00;42.20;;;30.20;;
20073;SDS011;10197;54.282;10.078;2023-09-12T04:03:28;37.03;;;27.23;;
20073;SDS011;10197;54.282;10.078;2023-09-12T04:05:55;42.75;;;30.15;;
20073;SDS011;10197;54.282;10.078;2023-09-12T04:08:22;50.15;;;33.78;;
20073;SDS011;10197;54.282;10.078;2023-09-12T04:10:49;45.85;;;33.25;;
20073;SDS011;10197;54.282;10.078;2023-09-12T04:13:16;55.60;;;36.00;;
20073;SDS011;10197;54.282;10.078;2023-09-12T04:15:42;43.15;;;29.35;;
20073;SDS011;10197;54.282;10.078;2023-09-12T04:18:09;40.38;;;28.27;;
20073;SDS011;10197;54.282;10.078;2023-09-12T04:20:37;39.70;;;27.90;;
20073;SDS011;10197;54.282;10.078;2023-09-12T04:23:04;49.83;;;34.10;;
20073;SDS011;10197;54.282;10.078;2023-09-12T04:25:31;55.90;;;33.15;;
20073;SDS011;10197;54.282;10.078;2023-09-12T04:27:58;42.40;;;30.50;;
20073;SDS011;10197;54.282;10.078;2023-09-12T04:30:26;37.42;;;27.50;;
20073;SDS011;10197;54.282;10.078;2023-09-12T04:32:53;40.50;;;29.83;;
20073;SDS011;10197;54.282;10.078;2023-09-12T04:35:20;46.97;;;32.70;;
20073;SDS011;10197;54.282;10.078;2023-09-12T04:37:49;43.65;;;30.55;;
20073;SDS011;10197;54.282;10.078;2023-09-12T04:40:16;39.15;;;28.45;;
20073;SDS011;10197;54.282;10.078;2023-09-12T04:42:43;39.55;;;27.20;;
20073;SDS011;10197;54.282;10.078;2023-09-12T04:45:10;42.72;;;30.52;;
20073;SDS011;10197;54.282;10.078;2023-09-12T04:47:36;49.08;;;31.80;;
20073;SDS011;10197;54.282;10.078;2023-09-12T04:50:05;50.50;;;33.60;;
20073;SDS011;10197;54.282;10.078;2023-09-12T04:52:32;49.83;;;33.28;;
20073;SDS011;10197;54.282;10.078;2023-09-12T04:55:00;58.33;;;36.85;;
20073;SDS011;10197;54.282;10.078;2023-09-12T04:57:30;56.25;;;36.33;;
20073;SDS011;10197;54.282;10.078;2023-09-12T04:59:58;47.65;;;32.03;;
20073;SDS011;10197;54.282;10.078;2023-09-12T05:02:24;47.15;;;31.58;;
20073;SDS011;10197;54.282;10.078;2023-09-12T05:04:52;50.95;;;31.55;;
20073;SDS011;10197;54.282;10.078;2023-09-12T05:07:19;57.38;;;39.42;;
20073;SDS011;10197;54.282;10.078;2023-09-12T05:09:46;60.38;;;39.42;;
20073;SDS011;10197;54.282;10.078;2023-09-12T05:12:14;49.55;;;33.40;;
20073;SDS011;10197;54.282;10.078;2023-09-12T05:14:41;68.78;;;40.42;;
20073;SDS011;10197;54.282;10.078;2023-09-12T05:17:09;60.50;;;38.88;;
20073;SDS011;10197;54.282;10.078;2023-09-12T05:19:36;58.03;;;38.17;;
20073;SDS011;10197;54.282;10.078;2023-09-12T05:22:03;70.85;;;44.38;;
20073;SDS011;10197;54.282;10.078;2023-09-12T05:24:30;65.03;;;41.08;;
20073;SDS011;10197;54.282;10.078;2023-09-12T05:26:57;67.07;;;44.35;;
20073;SDS011;10197;54.282;10.078;2023-09-12T05:29:25;63.50;;;42.75;;
20073;SDS011;10197;54.282;10.078;2023-09-12T05:31:51;60.83;;;40.63;;
20073;SDS011;10197;54.282;10.078;2023-09-12T05:34:18;57.13;;;38.13;;
20073;SDS011;10197;54.282;10.078;2023-09-12T05:36:45;59.17;;;40.13;;
20073;SDS011;10197;54.282;10.078;2023-09-12T05:39:12;60.28;;;40.63;;
20073;SDS011;10197;54.282;10.078;2023-09-12T05:41:41;58.17;;;37.97;;
20073;SDS011;10197;54.282;10.078;2023-09-12T05:44:07;62.15;;;38.90;;
20073;SDS011;10197;54.282;10.078;2023-09-12T05:46:36;64.97;;;43.80;;
20073;SDS011;10197;54.282;10.078;2023-09-12T05:49:02;59.13;;;39.97;;
20073;SDS011;10197;54.282;10.078;2023-09-12T05:51:29;55.70;;;40.35;;
20073;SDS011;10197;54.282;10.078;2023-09-12T05:53:56;54.13;;;37.63;;
20073;SDS011;10197;54.282;10.078;2023-09-12T05:56:23;53.22;;;39.55;;
20073;SDS011;10197;54.282;10.078;2023-09-12T05:58:50;60.13;;;39.45;;
20073;SDS011;10197;54.282;10.078;2023-09-12T06:01:17;59.08;;;41.38;;
20073;SDS011;10197;54.282;10.078;2023-09-12T06:03:47;59.60;;;38.38;;
20073;SDS011;10197;54.282;10.078;2023-09-12T06:06:13;52.78;;;38.60;;
20073;SDS011;10197;54.282;10.078;2023-09-12T06:08:40;49.33;;;35.03;;
20073;SDS011;10197;54.282;10.078;2023-09-12T06:11:07;46.50;;;32.63;;
20073;SDS011;10197;54.282;10.078;2023-09-12T06:13:34;44.75;;;34.55;;
20073;SDS011;10197;54.282;10.078;2023-09-12T06:16:02;49.47;;;36.20;;
20073;SDS011;10197;54.282;10.078;2023-09-12T06:18:29;44.10;;;34.25;;
20073;SDS011;10197;54.282;10.078;2023-09-12T06:20:58;46.78;;;35.25;;
20073;SDS011;10197;54.282;10.078;2023-09-12T06:23:27;47.60;;;34.17;;
20073;SDS011;10197;54.282;10.078;2023-09-12T06:25:54;43.70;;;32.45;;
20073;SDS011;10197;54.282;10.078;2023-09-12T06:28:27;50.08;;;37.65;;
20073;SDS011;10197;54.282;10.078;2023-09-12T06:30:55;63.67;;;40.60;;
20073;SDS011;10197;54.282;10.078;2023-09-12T06:33:22;45.08;;;32.47;;
20073;SDS011;10197;54.282;10.078;2023-09-12T06:35:49;46.00;;;35.45;;
20073;SDS011;10197;54.282;10.078;2023-09-12T06:38:19;52.03;;;36.28;;
20073;SDS011;10197;54.282;10.078;2023-09-12T06:40:46;49.30;;;34.72;;
20073;SDS011;10197;54.282;10.078;2023-09-12T06:43:13;52.00;;;36.65;;
20073;SDS011;10197;54.282;10.078;2023-09-12T06:45:40;42.28;;;30.58;;
20073;SDS011;10197;54.282;10.078;2023-09-12T06:48:08;58.00;;;37.47;;
20073;SDS011;10197;54.282;10.078;2023-09-12T06:50:35;48.03;;;33.88;;
20073;SDS011;10197;54.282;10.078;2023-09-12T06:53:03;50.22;;;37.22;;
20073;SDS011;10197;54.282;10.078;2023-09-12T06:55:32;52.28;;;36.42;;
20073;SDS011;10197;54.282;10.078;2023-09-12T06:57:59;46.75;;;37.17;;
20073;SDS011;10197;54.282;10.078;2023-09-12T07:00:26;45.08;;;32.00;;
20073;SDS011;10197;54.282;10.078;2023-09-12T07:02:53;46.90;;;35.88;;
20073;SDS011;10197;54.282;10.078;2023-09-12T07:05:19;38.50;;;28.85;;
20073;SDS011;10197;54.282;10.078;2023-09-12T07:07:46;46.33;;;34.30;;
20073;SDS011;10197;54.282;10.078;2023-09-12T07:10:13;42.28;;;31.67;;
20073;SDS011;10197;54.282;10.078;2023-09-12T07:12:41;40.60;;;31.10;;
20073;SDS011;10197;54.282;10.078;2023-09-12T07:15:08;43.38;;;29.83;;
20073;SDS011;10197;54.282;10.078;2023-09-12T07:17:35;44.50;;;30.33;;
20073;SDS011;10197;54.282;10.078;2023-09-12T07:20:01;44.95;;;34.50;;
20073;SDS011;10197;54.282;10.078;2023-09-12T07:22:30;41.45;;;31.50;;
20073;SDS011;10197;54.282;10.078;2023-09-12T07:24:59;44.85;;;33.25;;
20073;SDS011;10197;54.282;10.078;2023-09-12T07:27:27;46.08;;;33.25;;
20073;SDS011;10197;54.282;10.078;2023-09-12T07:29:56;44.55;;;33.55;;
20073;SDS011;10197;54.282;10.078;2023-09-12T07:32:22;40.78;;;29.23;;
20073;SDS011;10197;54.282;10.078;2023-09-12T07:34:49;36.08;;;27.40;;
20073;SDS011;10197;54.282;10.078;2023-09-12T07:37:16;43.70;;;30.38;;
20073;SDS011;10197;54.282;10.078;2023-09-12T07:39:43;43.50;;;31.90;;
20073;SDS011;10197;54.282;10.078;2023-09-12T07:42:10;32.13;;;27.30;;
20073;SDS011;10197;54.282;10.078;2023-09-12T07:44:36;36.35;;;27.40;;
20073;SDS011;10197;54.282;10.078;2023-09-12T07:47:06;43.10;;;31.67;;
20073;SDS011;10197;54.282;10.078;2023-09-12T07:49:33;40.58;;;28.88;;
20073;SDS011;10197;54.282;10.078;2023-09-12T07:52:01;36.13;;;27.15;;
20073;SDS011;10197;54.282;10.078;2023-09-12T07:54:28;30.98;;;24.20;;
20073;SDS011;10197;54.282;10.078;2023-09-12T07:56:56;36.67;;;26.80;;
20073;SDS011;10197;54.282;10.078;2023-09-12T07:59:22;41.67;;;27.45;;
20073;SDS011;10197;54.282;10.078;2023-09-12T08:01:49;38.95;;;26.33;;
20073;SDS011;10197;54.282;10.078;2023-09-12T08:04:17;31.60;;;23.35;;
20073;SDS011;10197;54.282;10.078;2023-09-12T08:06:44;34.42;;;23.95;;
20073;SDS011;10197;54.282;10.078;2023-09-12T08:09:11;32.70;;;24.45;;
20073;SDS011;10197;54.282;10.078;2023-09-12T08:11:38;28.73;;;20.90;;
20073;SDS011;10197;54.282;10.078;2023-09-12T08:14:05;31.63;;;23.38;;
20073;SDS011;10197;54.282;10.078;2023-09-12T08:16:33;27.88;;;22.95;;
20073;SDS011;10197;54.282;10.078;2023-09-12T08:19:00;28.98;;;22.05;;
20073;SDS011;10197;54.282;10.078;2023-09-12T08:21:28;27.58;;;21.30;;
20073;SDS011;10197;54.282;10.078;2023-09-12T08:23:55;31.50;;;23.35;;
20073;SDS011;10197;54.282;10.078;2023-09-12T08:26:22;27.45;;;21.42;;
20073;SDS011;10197;54.282;10.078;2023-09-12T08:28:49;24.77;;;19.98;;
20073;SDS011;10197;54.282;10.078;2023-09-12T08:31:16;28.10;;;22.88;;
20073;SDS011;10197;54.282;10.078;2023-09-12T08:33:42;26.42;;;21.48;;
20073;SDS011;10197;54.282;10.078;2023-09-12T08:36:09;26.70;;;21.90;;
20073;SDS011;10197;54.282;10.078;2023-09-12T08:38:37;29.83;;;24.50;;
20073;SDS011;10197;54.282;10.078;2023-09-12T08:41:05;28.27;;;24.33;;
20073;SDS011;10197;54.282;10.078;2023-09-12T08:43:32;28.27;;;25.17;;
20073;SDS011;10197;54.282;10.078;2023-09-12T08:45:59;29.35;;;26.27;;
20073;SDS011;10197;54.282;10.078;2023-09-12T08:48:26;28.88;;;22.98;;
20073;SDS011;10197;54.282;10.078;2023-09-12T08:50:54;28.67;;;24.30;;
20073;SDS011;10197;54.282;10.078;2023-09-12T08:53:21;33.28;;;26.27;;
20073;SDS011;10197;54.282;10.078;2023-09-12T08:55:49;26.63;;;21.55;;
20073;SDS011;10197;54.282;10.078;2023-09-12T08:58:18;26.08;;;22.38;;
20073;SDS011;10197;54.282;10.078;2023-09-12T09:00:45;22.98;;;20.48;;
20073;SDS011;10197;54.282;10.078;2023-09-12T09:03:13;24.48;;;21.85;;
20073;SDS011;10197;54.282;10.078;2023-09-12T09:05:40;20.52;;;18.30;;
20073;SDS011;10197;54.282;10.078;2023-09-12T09:08:07;21.77;;;18.00;;
20073;SDS011;10197;54.282;10.078;2023-09-12T09:10:34;26.88;;;21.10;;
20073;SDS011;10197;54.282;10.078;2023-09-12T09:13:03;22.83;;;20.42;;
20073;SDS011;10197;54.282;10.078;2023-09-12T09:15:32;25.60;;;18.30;;
20073;SDS011;10197;54.282;10.078;2023-09-12T09:17:58;21.08;;;16.67;;
20073;SDS011;10197;54.282;10.078;2023-09-12T09:20:30;22.67;;;15.23;;
20073;SDS011;10197;54.282;10.078;2023-09-12T09:23:00;17.83;;;14.98;;
20073;SDS011;10197;54.282;10.078;2023-09-12T09:25:30;17.70;;;14.73;;
20073;SDS011;10197;54.282;10.078;2023-09-12T09:27:56;18.80;;;15.32;;
20073;SDS011;10197;54.282;10.078;2023-09-12T09:30:40;19.08;;;12.50;;
20073;SDS011;10197;54.282;10.078;2023-09-12T09:33:08;20.75;;;12.82;;
20073;SDS011;10197;54.282;10.078;2023-09-12T09:35:35;15.77;;;12.57;;
20073;SDS011;10197;54.282;10.078;2023-09-12T09:38:02;15.55;;;13.80;;
20073;SDS011;10197;54.282;10.078;2023-09-12T09:40:33;17.00;;;13.82;;
20073;SDS011;10197;54.282;10.078;2023-09-12T09:43:01;17.23;;;13.48;;
20073;SDS011;10197;54.282;10.078;2023-09-12T09:45:29;13.52;;;11.75;;
20073;SDS011;10197;54.282;10.078;2023-09-12T09:47:58;17.55;;;12.05;;
20073;SDS011;10197;54.282;10.078;2023-09-12T09:50:25;14.68;;;11.68;;
20073;SDS011;10197;54.282;10.078;2023-09-12T09:52:53;14.82;;;11.93;;
20073;SDS011;10197;54.282;10.078;2023-09-12T09:55:21;15.88;;;12.70;;
20073;SDS011;10197;54.282;10.078;2023-09-12T09:57:48;14.18;;;11.65;;
20073;SDS011;10197;54.282;10.078;2023-09-12T10:00:18;17.33;;;12.32;;
20073;SDS011;10197;54.282;10.078;2023-09-12T10:02:46;13.63;;;10.82;;
20073;SDS011;10197;54.282;10.078;2023-09-12T10:05:16;14.18;;;10.40;;
20073;SDS011;10197;54.282;10.078;2023-09-12T10:07:44;12.48;;;11.18;;
20073;SDS011;10197;54.282;10.078;2023-09-12T10:10:15;12.98;;;11.23;;
20073;SDS011;10197;54.282;10.078;2023-09-12T10:12:43;12.95;;;10.63;;
20073;SDS011;10197;54.282;10.078;2023-09-12T10:15:15;18.48;;;11.55;;
20073;SDS011;10197;54.282;10.078;2023-09-12T10:17:44;15.52;;;11.75;;
20073;SDS011;10197;54.282;10.078;2023-09-12T10:20:14;20.35;;;12.00;;
20073;SDS011;10197;54.282;10.078;2023-09-12T10:22:48;13.13;;;10.65;;
20073;SDS011;10197;54.282;10.078;2023-09-12T10:25:20;11.65;;;10.00;;
20073;SDS011;10197;54.282;10.078;2023-09-12T10:27:48;12.68;;;9.23;;
20073;SDS011;10197;54.282;10.078;2023-09-12T10:30:16;15.27;;;8.82;;
20073;SDS011;10197;54.282;10.078;2023-09-12T10:32:44;11.65;;;9.20;;
20073;SDS011;10197;54.282;10.078;2023-09-12T10:35:11;11.45;;;8.73;;
20073;SDS011;10197;54.282;10.078;2023-09-12T10:37:40;14.43;;;9.30;;
20073;SDS011;10197;54.282;10.078;2023-09-12T10:40:08;18.75;;;10.90;;
20073;SDS011;10197;54.282;10.078;2023-09-12T10:42:37;13.20;;;9.15;;
20073;SDS011;10197;54.282;10.078;2023-09-12T10:45:05;10.38;;;9.13;;
20073;SDS011;10197;54.282;10.078;2023-09-12T10:47:33;10.18;;;8.50;;
20073;SDS011;10197;54.282;10.078;2023-09-12T10:50:01;11.50;;;7.75;;
20073;SDS011;10197;54.282;10.078;2023-09-12T10:52:28;11.88;;;6.78;;
20073;SDS011;10197;54.282;10.078;2023-09-12T10:54:56;11.90;;;8.13;;
20073;SDS011;10197;54.282;10.078;2023-09-12T10:57:24;8.63;;;6.63;;
20073;SDS011;10197;54.282;10.078;2023-09-12T11:00:10;8.10;;;6.82;;
20073;SDS011;10197;54.282;10.078;2023-09-12T11:02:38;9.75;;;7.13;;
20073;SDS011;10197;54.282;10.078;2023-09-12T11:05:06;9.82;;;7.30;;
20073;SDS011;10197;54.282;10.078;2023-09-12T11:07:43;8.25;;;7.35;;
20073;SDS011;10197;54.282;10.078;2023-09-12T11:10:19;7.85;;;7.05;;
20073;SDS011;10197;54.282;10.078;2023-09-12T11:12:47;8.20;;;7.03;;
20073;SDS011;10197;54.282;10.078;2023-09-12T11:15:15;9.05;;;7.45;;
20073;SDS011;10197;54.282;10.078;2023-09-12T11:17:42;11.77;;;8.13;;
20073;SDS011;10197;54.282;10.078;2023-09-12T11:20:10;17.90;;;8.25;;
20073;SDS011;10197;54.282;10.078;2023-09-12T11:22:37;12.68;;;8.05;;
20073;SDS011;10197;54.282;10.078;2023-09-12T11:27:45;14.25;;;11.10;;
20073;SDS011;10197;54.282;10.078;2023-09-12T11:30:29;16.15;;;11.13;;
20073;SDS011;10197;54.282;10.078;2023-09-12T11:32:57;15.15;;;11.23;;
20073;SDS011;10197;54.282;10.078;2023-09-12T11:35:25;12.48;;;10.48;;
20073;SDS011;10197;54.282;10.078;2023-09-12T11:37:53;13.80;;;11.55;;
20073;SDS011;10197;54.282;10.078;2023-09-12T11:40:22;14.40;;;11.73;;
20073;SDS011;10197;54.282;10.078;2023-09-12T11:42:51;15.27;;;11.88;;
20073;SDS011;10197;54.282;10.078;2023-09-12T11:45:19;11.05;;;9.82;;
20073;SDS011;10197;54.282;10.078;2023-09-12T11:47:47;11.07;;;9.02;;
20073;SDS011;10197;54.282;10.078;2023-09-12T11:50:27;15.73;;;12.52;;
20073;SDS011;10197;54.282;10.078;2023-09-12T11:52:58;12.23;;;10.90;;
20073;SDS011;10197;54.282;10.078;2023-09-12T11:55:26;13.75;;;10.45;;
20073;SDS011;10197;54.282;10.078;2023-09-12T11:57:57;13.65;;;10.15;;
20073;SDS011;10197;54.282;10.078;2023-09-12T12:00:23;13.15;;;11.75;;
20073;SDS011;10197;54.282;10.078;2023-09-12T12:02:51;16.52;;;11.60;;
20073;SDS011;10197;54.282;10.078;2023-09-12T12:05:18;14.90;;;12.57;;
20073;SDS011;10197;54.282;10.078;2023-09-12T12:07:46;13.57;;;11.48;;
20073;SDS011;10197;54.282;10.078;2023-09-12T12:10:13;13.88;;;10.88;;
20073;SDS011;10197;54.282;10.078;2023-09-12T12:12:41;15.30;;;12.60;;
20073;SDS011;10197;54.282;10.078;2023-09-12T12:15:10;14.88;;;10.60;;
20073;SDS011;10197;54.282;10.078;2023-09-12T12:17:37;13.82;;;12.43;;
20073;SDS011;10197;54.282;10.078;2023-09-12T12:20:06;13.27;;;10.90;;
20073;SDS011;10197;54.282;10.078;2023-09-12T12:22:35;22.83;;;14.48;;
20073;SDS011;10197;54.282;10.078;2023-09-12T12:25:05;16.65;;;12.95;;
20073;SDS011;10197;54.282;10.078;2023-09-12T12:27:32;14.32;;;12.82;;
20073;SDS011;10197;54.282;10.078;2023-09-12T12:30:00;15.32;;;13.68;;
20073;SDS011;10197;54.282;10.078;2023-09-12T12:32:28;18.88;;;14.75;;
20073;SDS011;10197;54.282;10.078;2023-09-12T12:34:54;18.30;;;14.68;;
20073;SDS011;10197;54.282;10.078;2023-09-12T12:37:27;17.00;;;14.10;;
20073;SDS011;10197;54.282;10.078;2023-09-12T12:39:56;14.70;;;11.98;;
20073;SDS011;10197;54.282;10.078;2023-09-12T12:42:23;14.48;;;12.95;;
20073;SDS011;10197;54.282;10.078;2023-09-12T12:44:52;17.42;;;14.07;;
20073;SDS011;10197;54.282;10.078;2023-09-12T12:47:19;18.55;;;15.30;;
20073;SDS011;10197;54.282;10.078;2023-09-12T12:49:52;16.75;;;14.07;;
20073;SDS011;10197;54.282;10.078;2023-09-12T12:52:22;18.75;;;15.98;;
20073;SDS011;10197;54.282;10.078;2023-09-12T12:54:49;19.55;;;14.57;;
20073;SDS011;10197;54.282;10.078;2023-09-12T12:57:18;16.25;;;13.07;;
20073;SDS011;10197;54.282;10.078;2023-09-12T12:59:45;13.10;;;11.63;;
20073;SDS011;10197;54.282;10.078;2023-09-12T13:02:12;14.27;;;11.63;;
20073;SDS011;10197;54.282;10.078;2023-09-12T13:04:39;15.25;;;12.60;;
20073;SDS011;10197;54.282;10.078;2023-09-12T13:07:08;12.25;;;10.95;;
20073;SDS011;10197;54.282;10.078;2023-09-12T13:09:37;13.73;;;11.05;;
20073;SDS011;10197;54.282;10.078;2023-09-12T13:12:05;16.88;;;12.90;;
20073;SDS011;10197;54.282;10.078;2023-09-12T13:14:33;10.70;;;9.48;;
20073;SDS011;10197;54.282;10.078;2023-09-12T13:17:00;16.02;;;11.88;;
20073;SDS011;10197;54.282;10.078;2023-09-12T13:19:28;15.10;;;11.70;;
20073;SDS011;10197;54.282;10.078;2023-09-12T13:21:55;11.82;;;10.48;;
20073;SDS011;10197;54.282;10.078;2023-09-12T13:24:23;14.02;;;11.18;;
20073;SDS011;10197;54.282;10.078;2023-09-12T13:26:51;12.32;;;11.02;;
20073;SDS011;10197;54.282;10.078;2023-09-12T13:29:17;15.63;;;12.68;;
20073;SDS011;10197;54.282;10.078;2023-09-12T13:31:44;13.20;;;10.75;;
20073;SDS011;10197;54.282;10.078;2023-09-12T13:34:11;12.32;;;11.02;;
20073;SDS011;10197;54.282;10.078;2023-09-12T13:36:39;13.35;;;11.43;;
20073;SDS011;10197;54.282;10.078;2023-09-12T13:39:06;16.98;;;13.13;;
20073;SDS011;10197;54.282;10.078;2023-09-12T13:41:35;15.15;;;13.50;;
20073;SDS011;10197;54.282;10.078;2023-09-12T13:44:02;15.38;;;13.77;;
20073;SDS011;10197;54.282;10.078;2023-09-12T13:46:29;17.38;;;12.20;;
20073;SDS011;10197;54.282;10.078;2023-09-12T13:48:56;11.85;;;9.52;;
20073;SDS011;10197;54.282;10.078;2023-09-12T13:51:25;9.38;;;8.35;;
20073;SDS011;10197;54.282;10.078;2023-09-12T13:53:52;12.70;;;9.98;;
20073;SDS011;10197;54.282;10.078;2023-09-12T13:56:19;15.25;;;9.40;;
20073;SDS011;10197;54.282;10.078;2023-09-12T13:58:48;12.38;;;9.93;;
20073;SDS011;10197;54.282;10.078;2023-09-12T14:01:16;12.50;;;11.00;;
20073;SDS011;10197;54.282;10.078;2023-09-12T14:03:44;13.32;;;11.68;;
20073;SDS011;10197;54.282;10.078;2023-09-12T14:06:11;11.68;;;9.68;;
20073;SDS011;10197;54.282;10.078;2023-09-12T14:08:37;12.95;;;10.32;;
20073;SDS011;10197;54.282;10.078;2023-09-12T14:11:04;16.13;;;11.38;;
20073;SDS011;10197;54.282;10.078;2023-09-12T14:13:31;13.82;;;8.95;;
20073;SDS011;10197;54.282;10.078;2023-09-12T14:15:59;15.55;;;11.40;;
20073;SDS011;10197;54.282;10.078;2023-09-12T14:18:26;13.38;;;10.57;;
20073;SDS011;10197;54.282;10.078;2023-09-12T14:20:53;12.48;;;10.73;;
20073;SDS011;10197;54.282;10.078;2023-09-12T14:23:20;9.02;;;8.10;;